Time;durP1;ratioP1;P1;durP2;ratioP2;P2;SDS_P1;SDS_P2;PMS_P1;PMS_P2;Temp;Humidity;BMP_temperature;BMP_pressure;BME280_temperature;BME280_humidity;BME280_pressure;Samples;Min_cycle;Max_cycle;Signal;HPM_P1;HPM_P2
2023/02/01 00:01:59;;;;;;;5.80;2.47;;;2.20;99.90;;;;;;4135678;28;20181;-67
2023/02/01 00:04:00;;;;;;;5.43;3.13;;;2.20;99.90;;;;;;4142267;28;20424;-66
2023/02/01 00:06:01;;;;;;;5.83;3.37;;;2.30;99.90;;;;;;4137086;28;20483;-66
2023/02/01 00:08:02;;;;;;;4.93;3.20;;;2.30;99.90;;;;;;4143295;28;20260;-67
2023/02/01 00:10:05;;;;;;;3.80;2.87;;;2.10;99.90;;;;;;4136747;28;20706;-66
2023/02/01 00:12:05;;;;;;;4.10;2.70;;;2.10;99.90;;;;;;4146688;28;20185;-66
2023/02/01 00:14:07;;;;;;;5.53;3.30;;;2.30;99.90;;;;;;4142563;28;20456;-67
2023/02/01 00:16:27;;;;;;;4.00;2.60;;;2.40;99.90;;;;;;4130982;28;20251;-67
2023/02/01 00:18:28;;;;;;;4.20;2.97;;;2.40;99.90;;;;;;4131542;28;20444;-67
2023/02/01 00:20:28;;;;;;;7.40;4.37;;;2.30;99.90;;;;;;4132290;28;20904;-66
2023/02/01 00:22:29;;;;;;;3.87;2.40;;;2.40;99.90;;;;;;4132322;28;20528;-66
2023/02/01 00:24:30;;;;;;;6.47;2.83;;;2.20;99.90;;;;;;4132506;28;20178;-66
2023/02/01 00:26:44;;;;;;;4.70;2.77;;;2.10;99.90;;;;;;4131355;28;20193;-66
2023/02/01 00:28:45;;;;;;;3.93;2.43;;;2.00;99.90;;;;;;4131684;28;20172;-66
2023/02/01 00:30:46;;;;;;;3.10;2.33;;;2.00;99.90;;;;;;4132139;28;20427;-66
2023/02/01 00:32:46;;;;;;;8.83;3.93;;;2.10;99.90;;;;;;4132194;28;20475;-67
2023/02/01 00:34:47;;;;;;;3.20;2.37;;;2.10;99.90;;;;;;4131507;28;20221;-66
2023/02/01 00:36:48;;;;;;;18.93;7.97;;;2.20;99.90;;;;;;4148381;28;20223;-66
2023/02/01 00:38:49;;;;;;;5.77;3.03;;;2.10;99.90;;;;;;4147582;28;20178;-67
2023/02/01 00:40:50;;;;;;;22.77;8.57;;;2.20;99.90;;;;;;4148124;28;20426;-67
2023/02/01 00:42:50;;;;;;;14.63;6.23;;;2.20;99.90;;;;;;4148176;28;20174;-66
2023/02/01 00:44:51;;;;;;;16.73;5.30;;;2.10;99.90;;;;;;4147205;28;20662;-66
2023/02/01 00:46:52;;;;;;;13.50;5.70;;;2.10;99.90;;;;;;4148216;28;20582;-66
2023/02/01 00:48:52;;;;;;;9.13;4.73;;;2.30;99.90;;;;;;4147355;28;20647;-66
2023/02/01 00:50:53;;;;;;;7.93;4.03;;;2.30;99.90;;;;;;4146623;28;20190;-66
2023/02/01 00:52:54;;;;;;;15.33;6.73;;;2.50;99.90;;;;;;4148045;28;20666;-66
2023/02/01 00:54:54;;;;;;;6.37;3.43;;;2.50;99.90;;;;;;4148117;28;20211;-67
2023/02/01 00:56:55;;;;;;;9.60;4.63;;;2.30;99.90;;;;;;4148095;28;20205;-65
2023/02/01 00:58:56;;;;;;;9.23;4.83;;;2.40;99.90;;;;;;4147556;28;20188;-66
2023/02/01 01:01:06;;;;;;;4.53;3.30;;;2.30;99.90;;;;;;4148109;28;20263;-66
2023/02/01 01:03:17;;;;;;;7.63;4.30;;;2.20;99.90;;;;;;4148203;28;20165;-65
2023/02/01 01:05:18;;;;;;;5.93;3.40;;;2.30;99.90;;;;;;4148307;28;20457;-66
2023/02/01 01:07:18;;;;;;;10.33;5.10;;;2.30;99.90;;;;;;4147860;28;21316;-66
2023/02/01 01:09:19;;;;;;;6.13;2.73;;;2.50;99.90;;;;;;4147137;28;20227;-66
2023/02/01 01:11:24;;;;;;;5.40;3.57;;;2.60;99.90;;;;;;4147519;28;20188;-66
2023/02/01 01:13:24;;;;;;;5.40;3.10;;;2.60;99.90;;;;;;4148060;28;20570;-66
2023/02/01 01:15:25;;;;;;;4.87;2.83;;;2.60;99.90;;;;;;4147941;28;20478;-66
2023/02/01 01:17:26;;;;;;;6.17;3.97;;;2.50;99.90;;;;;;4146797;28;20176;-66
2023/02/01 01:19:26;;;;;;;4.00;2.77;;;2.50;99.90;;;;;;4147080;28;20178;-66
2023/02/01 01:21:28;;;;;;;3.90;3.10;;;2.30;99.90;;;;;;4147755;28;20659;-65
2023/02/01 01:23:28;;;;;;;3.57;2.77;;;2.20;99.90;;;;;;4146417;28;20259;-66
2023/02/01 01:25:30;;;;;;;3.80;2.90;;;2.10;99.90;;;;;;4147571;28;20514;-66
2023/02/01 01:27:30;;;;;;;5.30;3.33;;;2.20;99.90;;;;;;4147756;28;20193;-66
2023/02/01 01:29:31;;;;;;;5.13;3.20;;;2.20;99.90;;;;;;4147072;28;20973;-66
2023/02/01 01:31:32;;;;;;;3.57;2.67;;;2.30;99.90;;;;;;4162547;28;20183;-66
2023/02/01 01:33:33;;;;;;;3.33;2.63;;;2.30;99.90;;;;;;4147518;28;20191;-66
2023/02/01 01:35:34;;;;;;;4.83;2.70;;;2.40;99.90;;;;;;4147195;28;20209;-66
2023/02/01 01:37:35;;;;;;;4.03;2.40;;;2.30;99.90;;;;;;4147576;28;20260;-66
2023/02/01 01:39:36;;;;;;;4.07;2.63;;;2.20;99.90;;;;;;4147304;28;20515;-66
2023/02/01 01:41:37;;;;;;;4.70;2.80;;;2.20;99.90;;;;;;4146141;28;20424;-66
2023/02/01 01:44:02;;;;;;;3.90;2.47;;;2.10;99.90;;;;;;4146084;28;20184;-66
2023/02/01 01:46:02;;;;;;;3.50;2.43;;;2.10;99.90;;;;;;4146126;28;20204;-66
2023/02/01 01:48:28;;;;;;;4.23;2.60;;;2.10;99.90;;;;;;4147078;28;20486;-65
2023/02/01 01:50:56;;;;;;;3.17;2.33;;;2.20;99.90;;;;;;4145813;28;20177;-64
2023/02/01 01:53:01;;;;;;;2.83;2.40;;;2.10;99.90;;;;;;4147036;28;20424;-65
2023/02/01 01:55:02;;;;;;;2.97;2.40;;;2.30;99.90;;;;;;4145734;28;20515;-65
2023/02/01 01:57:12;;;;;;;2.67;2.23;;;2.20;99.90;;;;;;4145391;28;20813;-66
2023/02/01 01:59:13;;;;;;;3.70;2.40;;;2.30;99.90;;;;;;4145169;28;20658;-65
2023/02/01 02:01:13;;;;;;;3.97;2.87;;;2.20;99.90;;;;;;4147085;28;20416;-66
2023/02/01 02:03:18;;;;;;;5.33;2.67;;;2.20;99.90;;;;;;4147071;28;20188;-66
2023/02/01 02:05:19;;;;;;;5.20;2.37;;;2.30;99.90;;;;;;4145905;28;20342;-66
2023/02/01 02:07:28;;;;;;;4.87;2.90;;;2.30;99.90;;;;;;4145865;28;20862;-65
2023/02/01 02:09:28;;;;;;;3.43;2.57;;;2.10;99.90;;;;;;4145258;28;20930;-65
2023/02/01 02:11:29;;;;;;;3.87;2.57;;;2.20;99.90;;;;;;4146891;28;20521;-65
2023/02/01 02:13:45;;;;;;;3.40;2.50;;;2.20;99.90;;;;;;4145514;28;20250;-64
2023/02/01 02:16:07;;;;;;;3.77;2.70;;;2.10;99.90;;;;;;4161887;28;20219;-65
2023/02/01 02:18:28;;;;;;;4.33;2.70;;;2.20;99.90;;;;;;4136587;28;20806;-65
2023/02/01 02:21:01;;;;;;;6.80;3.03;;;2.00;99.90;;;;;;4130608;28;20417;-65
2023/02/01 02:23:34;;;;;;;3.90;2.63;;;1.80;99.90;;;;;;4129295;28;20926;-65
2023/02/01 02:26:17;;;;;;;5.83;3.57;;;1.90;99.90;;;;;;4130704;28;20432;-64
2023/02/01 02:28:26;;;;;;;4.00;2.60;;;1.80;99.90;;;;;;4130411;28;20417;-65
2023/02/01 02:30:57;;;;;;;3.47;2.47;;;1.80;99.90;;;;;;4130550;28;20428;-64
2023/02/01 02:33:37;;;;;;;4.40;2.50;;;1.70;99.90;;;;;;4130636;28;20397;-65
2023/02/01 02:36:00;;;;;;;6.90;2.60;;;1.70;99.90;;;;;;4156630;28;20459;-64
2023/02/01 02:38:16;;;;;;;3.10;2.37;;;1.70;99.90;;;;;;4161807;28;20542;-67
2023/02/01 02:40:59;;;;;;;3.87;2.40;;;1.90;99.90;;;;;;4162586;28;20415;-64
2023/02/01 02:48:38;;;;;;;2.50;1.80;;;1.80;99.90;;;;;;4162138;28;20501;-65
2023/02/01 02:55:51;;;;;;;5.17;2.10;;;1.70;99.90;;;;;;4161316;28;20521;-65
2023/02/01 03:04:58;;;;;;;2.10;1.80;;;1.60;99.90;;;;;;4162346;28;20434;-64
2023/02/01 03:07:46;;;;;;;1.80;1.53;;;1.60;99.90;;;;;;4177209;28;20458;-65
2023/02/01 03:09:48;;;;;;;2.47;1.70;;;1.60;99.90;;;;;;4162455;28;20196;-66
2023/02/01 03:14:22;;;;;;;2.23;1.60;;;1.60;99.90;;;;;;4162486;28;20419;-66
2023/02/01 03:16:31;;;;;;;1.97;1.37;;;1.60;99.90;;;;;;4161100;28;20522;-66
2023/02/01 03:18:44;;;;;;;1.77;1.30;;;1.60;99.90;;;;;;4148121;28;20510;-65
2023/02/01 03:20:49;;;;;;;1.97;1.50;;;1.70;99.90;;;;;;4144684;28;20446;-66
2023/02/01 03:22:52;;;;;;;1.43;1.13;;;1.60;99.90;;;;;;4144989;28;20424;-65
2023/02/01 03:24:58;;;;;;;1.20;1.00;;;1.60;99.90;;;;;;4145080;28;21231;-66
2023/02/01 03:27:11;;;;;;;1.20;1.10;;;1.70;99.90;;;;;;4145906;28;20992;-65
2023/02/01 03:29:17;;;;;;;1.40;1.10;;;1.70;99.90;;;;;;4143986;28;20405;-65
2023/02/01 03:31:19;;;;;;;1.27;1.17;;;1.70;99.90;;;;;;4144587;28;20944;-65
2023/02/01 03:33:23;;;;;;;2.20;0.90;;;1.70;99.90;;;;;;4144522;28;20412;-65
2023/02/01 03:35:39;;;;;;;2.00;1.10;;;1.70;99.90;;;;;;4144359;28;20544;-65
2023/02/01 03:37:40;;;;;;;2.43;0.93;;;1.80;99.90;;;;;;4144613;28;20748;-65
2023/02/01 03:40:07;;;;;;;1.63;1.53;;;1.80;99.90;;;;;;4145350;28;20830;-65
2023/02/01 03:42:23;;;;;;;1.30;0.97;;;1.80;99.90;;;;;;4144699;28;21299;-66
2023/02/01 03:45:00;;;;;;;1.30;1.10;;;1.90;99.90;;;;;;4145138;28;20409;-65
2023/02/01 03:47:12;;;;;;;1.33;1.20;;;1.90;99.90;;;;;;4145118;28;20486;-65
2023/02/01 03:49:22;;;;;;;1.10;1.00;;;1.90;99.90;;;;;;4143726;28;20470;-65
2023/02/01 03:51:25;;;;;;;1.10;1.00;;;1.90;99.90;;;;;;4144523;28;20444;-66
2023/02/01 03:53:27;;;;;;;1.73;1.63;;;1.90;99.90;;;;;;4144476;28;20432;-65
2023/02/01 03:55:30;;;;;;;1.33;1.00;;;1.90;99.90;;;;;;4138435;28;20518;-64
2023/02/01 03:57:37;;;;;;;1.73;1.63;;;1.80;99.90;;;;;;4143931;28;20845;-65
2023/02/01 03:59:45;;;;;;;0.97;0.87;;;1.80;99.90;;;;;;4144970;28;20450;-66
2023/02/01 04:01:46;;;;;;;1.13;0.87;;;1.80;99.90;;;;;;4145594;28;20432;-66
2023/02/01 04:03:46;;;;;;;1.10;0.90;;;1.80;99.90;;;;;;4144183;28;20969;-65
2023/02/01 04:05:51;;;;;;;0.87;0.87;;;1.80;99.90;;;;;;4145519;28;20618;-65
2023/02/01 04:07:52;;;;;;;1.03;0.90;;;1.80;99.90;;;;;;4145794;28;20258;-66
2023/02/01 04:09:52;;;;;;;1.47;1.00;;;1.80;99.90;;;;;;4144880;28;20462;-64
2023/02/01 04:11:53;;;;;;;1.67;1.10;;;1.80;99.90;;;;;;4144316;28;20739;-65
2023/02/01 04:13:54;;;;;;;1.53;1.10;;;1.90;99.90;;;;;;4144122;28;20186;-66
2023/02/01 04:15:54;;;;;;;1.40;1.30;;;1.80;99.90;;;;;;4145449;28;20244;-65
2023/02/01 04:17:55;;;;;;;1.20;0.80;;;1.80;99.90;;;;;;4138269;28;20205;-66
2023/02/01 04:19:56;;;;;;;0.97;0.90;;;1.80;99.90;;;;;;4129813;28;20204;-65
2023/02/01 04:21:56;;;;;;;1.30;0.90;;;1.90;99.90;;;;;;4147233;28;20195;-66
2023/02/01 04:23:57;;;;;;;6.97;1.13;;;1.80;99.90;;;;;;4132261;28;20186;-65
2023/02/01 04:26:03;;;;;;;1.00;0.90;;;1.90;99.90;;;;;;4132543;28;20704;-66
2023/02/01 04:28:04;;;;;;;1.20;1.10;;;1.90;99.90;;;;;;4131237;28;20240;-65
2023/02/01 04:30:09;;;;;;;1.93;1.40;;;1.90;99.90;;;;;;4131994;28;20439;-65
2023/02/01 04:32:10;;;;;;;2.20;1.07;;;1.90;99.90;;;;;;4146892;28;20440;-66
2023/02/01 04:34:10;;;;;;;1.00;0.90;;;1.90;99.90;;;;;;4146063;28;20435;-65
2023/02/01 04:36:11;;;;;;;1.20;1.10;;;1.90;99.90;;;;;;4146873;28;20220;-66
2023/02/01 04:38:12;;;;;;;1.90;1.40;;;1.90;99.90;;;;;;4148188;28;20184;-65
2023/02/01 04:40:12;;;;;;;2.43;1.50;;;1.90;99.90;;;;;;4146187;28;20180;-65
2023/02/01 04:42:13;;;;;;;2.27;1.50;;;1.80;99.90;;;;;;4147113;28;20181;-65
2023/02/01 04:44:17;;;;;;;2.63;1.63;;;1.70;99.90;;;;;;4148263;28;20178;-64
2023/02/01 04:46:18;;;;;;;3.40;1.70;;;1.70;99.90;;;;;;4146919;28;20208;-65
2023/02/01 04:48:20;;;;;;;2.90;2.00;;;1.60;99.90;;;;;;4147792;28;20451;-65
2023/02/01 04:50:20;;;;;;;1.67;1.10;;;1.60;99.90;;;;;;4148079;28;20429;-66
2023/02/01 04:52:21;;;;;;;1.70;1.40;;;1.60;99.90;;;;;;4148290;28;20442;-65
2023/02/01 04:54:22;;;;;;;2.47;1.67;;;1.60;99.90;;;;;;4147850;28;20181;-65
2023/02/01 04:56:22;;;;;;;1.30;1.20;;;1.60;99.90;;;;;;4147928;28;20216;-66
2023/02/01 04:58:23;;;;;;;2.30;1.43;;;1.60;99.90;;;;;;4147245;28;20185;-66
2023/02/01 05:00:24;;;;;;;3.03;1.53;;;1.60;99.90;;;;;;4147801;28;20188;-65
2023/02/01 05:02:25;;;;;;;1.20;1.10;;;1.60;99.90;;;;;;4164206;28;20253;-66
2023/02/01 05:04:25;;;;;;;1.27;1.10;;;1.50;99.90;;;;;;4164075;28;20422;-66
2023/02/01 05:06:26;;;;;;;1.87;1.37;;;1.70;99.90;;;;;;4164299;28;20231;-66
2023/02/01 05:08:28;;;;;;;1.60;1.30;;;1.70;99.90;;;;;;4163386;28;20549;-66
2023/02/01 05:10:29;;;;;;;1.90;1.30;;;1.70;99.90;;;;;;4162866;28;20188;-67
2023/02/01 05:14:49;;;;;;;1.73;1.47;;;1.70;99.90;;;;;;4164228;28;20712;-66
2023/02/01 05:16:50;;;;;;;1.30;1.20;;;1.70;99.90;;;;;;4164784;28;20439;-66
2023/02/01 05:18:50;;;;;;;2.73;1.80;;;1.70;99.90;;;;;;4164093;28;20742;-65
2023/02/01 05:20:51;;;;;;;1.60;1.50;;;1.60;99.90;;;;;;4148154;28;20611;-68
2023/02/01 05:22:52;;;;;;;1.70;1.30;;;1.60;99.90;;;;;;4148150;28;20258;-66
2023/02/01 05:24:52;;;;;;;2.57;1.70;;;1.70;99.90;;;;;;4148105;28;20192;-64
2023/02/01 05:26:53;;;;;;;1.93;1.37;;;1.60;99.90;;;;;;4146668;28;20208;-65
2023/02/01 05:28:54;;;;;;;4.00;1.80;;;1.60;99.90;;;;;;4147073;28;20247;-67
2023/02/01 05:30:55;;;;;;;3.40;1.53;;;1.60;99.90;;;;;;4147751;28;20219;-65
2023/02/01 05:32:55;;;;;;;1.70;1.47;;;1.70;99.90;;;;;;4148322;28;20431;-65
2023/02/01 05:34:56;;;;;;;1.77;1.40;;;1.70;99.90;;;;;;4148136;28;20763;-64
2023/02/01 05:36:57;;;;;;;2.13;1.60;;;1.70;99.90;;;;;;4163234;28;20634;-66
2023/02/01 05:38:58;;;;;;;1.90;1.77;;;1.70;99.90;;;;;;4147275;28;20283;-65
2023/02/01 05:40:58;;;;;;;4.83;3.57;;;1.70;99.90;;;;;;4147786;28;20537;-66
2023/02/01 05:42:59;;;;;;;4.47;3.70;;;1.70;99.90;;;;;;4147966;28;20180;-65
2023/02/01 05:45:00;;;;;;;1.53;1.43;;;1.80;99.90;;;;;;4147906;28;20215;-67
2023/02/01 05:47:00;;;;;;;2.70;2.50;;;1.80;99.90;;;;;;4147935;28;20194;-66
2023/02/01 05:49:01;;;;;;;20.10;12.60;;;1.80;99.90;;;;;;4145948;28;20208;-65
2023/02/01 05:51:02;;;;;;;13.27;9.27;;;1.80;99.90;;;;;;4147274;28;20193;-65
2023/02/01 05:53:03;;;;;;;4.90;4.40;;;1.80;99.90;;;;;;4147542;28;20287;-65
2023/02/01 05:55:04;;;;;;;2.03;1.80;;;1.80;99.90;;;;;;4147173;28;20286;-65
2023/02/01 05:57:05;;;;;;;2.00;1.80;;;1.80;99.90;;;;;;4133634;28;20620;-66
2023/02/01 05:59:06;;;;;;;2.13;1.93;;;1.80;99.90;;;;;;4140849;28;20435;-65
2023/02/01 06:01:07;;;;;;;1.57;1.40;;;1.80;99.90;;;;;;4147068;28;20192;-66
2023/02/01 06:03:07;;;;;;;4.03;3.73;;;1.70;99.90;;;;;;4147094;28;20270;-66
2023/02/01 06:05:08;;;;;;;0.93;0.93;;;1.70;99.90;;;;;;4146950;28;20192;-66
2023/02/01 06:07:10;;;;;;;1.93;1.30;;;1.70;99.90;;;;;;4145613;28;20215;-67
2023/02/01 06:09:10;;;;;;;2.80;1.30;;;1.70;99.90;;;;;;4146257;28;20275;-66
2023/02/01 06:11:13;;;;;;;1.07;0.97;;;1.80;99.90;;;;;;4145090;28;20865;-66
2023/02/01 06:13:13;;;;;;;3.30;1.30;;;1.80;99.90;;;;;;4146837;28;20188;-66
2023/02/01 06:15:18;;;;;;;1.40;1.10;;;1.70;99.90;;;;;;4146569;28;20478;-66
2023/02/01 06:17:18;;;;;;;1.10;1.00;;;1.70;99.90;;;;;;4146431;28;20207;-65
2023/02/01 06:19:19;;;;;;;2.93;1.10;;;1.80;99.90;;;;;;4161024;28;20442;-66
2023/02/01 06:21:23;;;;;;;1.10;1.00;;;1.80;99.90;;;;;;4146643;28;20651;-65
2023/02/01 06:23:24;;;;;;;1.83;1.00;;;1.90;99.90;;;;;;4145255;28;20220;-65
2023/02/01 06:25:24;;;;;;;1.03;0.93;;;1.90;99.90;;;;;;4146424;28;20807;-65
2023/02/01 06:27:25;;;;;;;3.70;3.17;;;1.90;99.90;;;;;;4146758;28;20269;-66
2023/02/01 06:29:26;;;;;;;1.10;1.00;;;1.90;99.90;;;;;;4144762;28;20181;-66
2023/02/01 06:31:27;;;;;;;1.63;1.07;;;1.90;99.90;;;;;;4147791;28;20188;-65
2023/02/01 06:33:27;;;;;;;0.90;0.87;;;2.00;99.90;;;;;;4147536;28;20242;-65
2023/02/01 06:35:28;;;;;;;1.20;1.00;;;2.00;99.90;;;;;;4146635;28;20359;-64
2023/02/01 06:37:29;;;;;;;1.20;1.10;;;1.90;99.90;;;;;;4146622;28;20176;-65
2023/02/01 06:39:29;;;;;;;1.20;1.10;;;1.90;99.90;;;;;;4144540;28;20177;-65
2023/02/01 06:41:30;;;;;;;2.13;1.10;;;1.80;99.90;;;;;;4146217;28;20209;-66
2023/02/01 06:43:32;;;;;;;1.50;1.10;;;1.80;99.90;;;;;;4145820;28;20238;-64
2023/02/01 06:45:33;;;;;;;1.30;1.20;;;1.70;99.90;;;;;;4144973;28;20565;-64
2023/02/01 06:47:34;;;;;;;1.20;1.10;;;1.70;99.90;;;;;;4144853;28;20480;-65
2023/02/01 06:49:34;;;;;;;1.53;1.33;;;1.70;99.90;;;;;;4144186;28;20554;-65
2023/02/01 06:51:35;;;;;;;1.20;1.10;;;1.70;99.90;;;;;;4146182;28;20920;-65
2023/02/01 06:53:36;;;;;;;2.10;2.00;;;1.80;99.90;;;;;;4146197;28;20295;-66
2023/02/01 06:55:36;;;;;;;1.30;1.17;;;1.80;99.90;;;;;;4146006;28;20574;-67
2023/02/01 06:57:37;;;;;;;0.90;0.90;;;1.80;99.90;;;;;;4146296;28;20184;-66
2023/02/01 06:59:37;;;;;;;1.27;1.00;;;1.90;99.90;;;;;;4145604;28;20191;-66
2023/02/01 07:01:38;;;;;;;1.67;1.53;;;1.80;99.90;;;;;;4146365;28;20239;-66
2023/02/01 07:03:39;;;;;;;1.27;0.97;;;1.80;99.90;;;;;;4145010;28;20185;-65
2023/02/01 07:05:40;;;;;;;2.30;1.93;;;1.80;99.90;;;;;;4146339;28;20185;-66
2023/02/01 07:07:40;;;;;;;1.23;0.80;;;1.80;99.90;;;;;;4146270;28;20204;-66
2023/02/01 07:09:41;;;;;;;0.90;0.90;;;1.70;99.90;;;;;;4145604;28;20189;-66
2023/02/01 07:11:43;;;;;;;0.83;0.70;;;1.80;99.90;;;;;;4146329;28;20280;-66
2023/02/01 07:13:45;;;;;;;1.37;0.97;;;1.80;99.90;;;;;;4145315;28;20197;-65
2023/02/01 07:15:48;;;;;;;1.70;1.00;;;1.80;99.90;;;;;;4146225;28;20460;-66
2023/02/01 07:17:49;;;;;;;0.90;0.90;;;1.80;99.90;;;;;;4139913;28;20775;-66
2023/02/01 07:19:50;;;;;;;1.37;1.03;;;1.80;99.90;;;;;;4128980;28;20429;-66
2023/02/01 07:21:50;;;;;;;1.40;0.90;;;1.80;99.90;;;;;;4129844;28;20594;-66
2023/02/01 07:23:51;;;;;;;1.40;1.20;;;1.90;99.90;;;;;;4128556;28;20182;-66
2023/02/01 07:26:00;;;;;;;2.20;1.20;;;1.90;99.90;;;;;;4130661;28;20221;-69
2023/02/01 07:28:01;;;;;;;1.30;1.20;;;1.90;99.90;;;;;;4129867;28;20643;-65
2023/02/01 07:30:04;;;;;;;1.00;0.90;;;1.90;99.90;;;;;;4127946;28;20490;-65
2023/02/01 07:32:05;;;;;;;1.60;1.03;;;1.90;99.90;;;;;;4130014;28;20194;-64
2023/02/01 07:34:05;;;;;;;1.30;1.20;;;1.90;99.90;;;;;;4129659;28;20433;-64
2023/02/01 07:36:14;;;;;;;1.03;0.93;;;1.90;99.90;;;;;;4129647;28;20737;-65
2023/02/01 07:38:15;;;;;;;1.30;1.20;;;2.00;99.90;;;;;;4129743;28;20250;-66
2023/02/01 07:40:18;;;;;;;1.23;1.13;;;2.00;99.90;;;;;;4128242;28;20428;-65
2023/02/01 07:42:19;;;;;;;1.27;1.07;;;2.00;99.90;;;;;;4129855;28;20436;-65
2023/02/01 07:44:22;;;;;;;1.53;1.10;;;2.00;99.90;;;;;;4129700;28;20804;-65
2023/02/01 07:46:23;;;;;;;1.20;1.00;;;2.10;99.90;;;;;;4129636;28;20970;-65
2023/02/01 07:48:25;;;;;;;1.20;1.03;;;2.10;99.90;;;;;;4128983;28;20456;-66
2023/02/01 07:50:26;;;;;;;1.10;1.00;;;2.20;99.90;;;;;;4128554;28;20476;-65
2023/02/01 07:52:29;;;;;;;1.03;0.90;;;2.40;99.90;;;;;;4129636;28;20429;-65
2023/02/01 07:54:30;;;;;;;2.27;1.10;;;2.40;99.90;;;;;;4131794;28;20737;-65
2023/02/01 07:56:31;;;;;;;1.20;1.00;;;2.40;99.90;;;;;;4131594;28;20457;-64
2023/02/01 07:58:31;;;;;;;1.23;0.97;;;2.40;99.90;;;;;;4130891;28;20186;-66
2023/02/01 08:02:51;;;;;;;5.70;1.47;;;2.20;99.90;;;;;;4131597;28;20190;-65
2023/02/01 08:04:52;;;;;;;2.67;2.47;;;2.30;99.90;;;;;;4132715;28;20419;-65
2023/02/01 08:06:52;;;;;;;2.63;1.17;;;2.30;99.90;;;;;;4132606;28;20249;-65
2023/02/01 08:08:53;;;;;;;2.63;1.30;;;2.20;99.90;;;;;;4132002;28;20192;-65
2023/02/01 08:10:59;;;;;;;3.00;1.30;;;2.10;99.90;;;;;;4132816;28;20209;-65
2023/02/01 08:13:02;;;;;;;1.60;1.10;;;2.10;99.90;;;;;;4132915;28;20510;-65
2023/02/01 08:15:04;;;;;;;2.30;1.20;;;2.10;99.90;;;;;;4132460;28;20494;-66
2023/02/01 08:17:04;;;;;;;1.57;1.00;;;2.30;99.90;;;;;;4132672;28;20885;-66
2023/02/01 08:19:05;;;;;;;2.83;1.27;;;2.20;99.90;;;;;;4147950;28;20457;-66
2023/02/01 08:21:22;;;;;;;0.97;0.90;;;2.10;99.90;;;;;;4147261;28;20191;-66
2023/02/01 08:23:23;;;;;;;1.10;1.00;;;2.00;99.90;;;;;;4147361;28;20177;-66
2023/02/01 08:25:24;;;;;;;1.30;1.13;;;1.90;99.90;;;;;;4151062;28;20439;-66
2023/02/01 08:27:24;;;;;;;2.10;1.30;;;1.90;99.90;;;;;;4148491;28;20451;-66
2023/02/01 08:29:25;;;;;;;2.27;0.97;;;2.00;99.90;;;;;;4148200;28;20189;-65
2023/02/01 08:31:28;;;;;;;2.30;1.37;;;2.10;99.90;;;;;;4148771;28;20189;-65
2023/02/01 08:33:28;;;;;;;2.03;1.00;;;2.10;99.90;;;;;;4148557;28;20197;-66
2023/02/01 08:35:29;;;;;;;4.43;1.30;;;2.20;99.90;;;;;;4148319;28;20482;-66
2023/02/01 08:37:30;;;;;;;1.97;1.10;;;2.30;99.90;;;;;;4148493;28;20193;-65
2023/02/01 08:39:31;;;;;;;1.90;1.17;;;2.20;99.90;;;;;;4147728;28;20737;-65
2023/02/01 08:41:31;;;;;;;1.60;1.17;;;2.20;99.90;;;;;;4148222;28;20428;-66
2023/02/01 08:43:32;;;;;;;2.20;1.30;;;2.30;99.90;;;;;;4148296;28;20188;-65
2023/02/01 08:45:33;;;;;;;2.13;1.43;;;2.30;99.90;;;;;;4148275;28;20196;-66
2023/02/01 08:47:35;;;;;;;4.63;2.00;;;2.40;99.90;;;;;;4148260;28;20281;-66
2023/02/01 08:49:35;;;;;;;3.37;1.47;;;2.40;99.90;;;;;;4146199;28;20756;-66
2023/02/01 08:51:36;;;;;;;4.87;2.00;;;2.40;99.90;;;;;;4146646;28;20470;-65
2023/02/01 08:53:40;;;;;;;3.23;1.80;;;2.40;99.90;;;;;;4147990;28;20199;-65
2023/02/01 08:55:41;;;;;;;6.77;2.20;;;2.40;99.90;;;;;;4147766;28;20240;-66
2023/02/01 08:57:43;;;;;;;2.70;1.83;;;2.40;99.90;;;;;;4148064;28;20884;-66
2023/02/01 08:59:44;;;;;;;2.83;1.50;;;2.40;99.90;;;;;;4147266;28;20177;-66
2023/02/01 09:01:44;;;;;;;4.20;2.20;;;2.40;99.90;;;;;;4148185;28;20451;-66
2023/02/01 09:03:45;;;;;;;2.40;1.80;;;2.50;99.90;;;;;;4147903;28;20328;-66
2023/02/01 09:05:47;;;;;;;4.47;1.97;;;2.60;99.90;;;;;;4145904;28;20213;-66
2023/02/01 09:07:48;;;;;;;7.00;1.73;;;2.70;99.90;;;;;;4147885;28;20190;-66
2023/02/01 09:09:48;;;;;;;3.40;1.80;;;2.80;99.90;;;;;;4162039;28;20435;-65
2023/02/01 09:11:50;;;;;;;4.13;1.90;;;2.90;99.90;;;;;;4148006;28;20722;-66
2023/02/01 09:13:50;;;;;;;5.87;1.70;;;3.00;99.90;;;;;;4147848;28;20236;-65
2023/02/01 09:15:51;;;;;;;5.23;1.70;;;3.10;99.90;;;;;;4147840;28;20968;-65
2023/02/01 09:17:52;;;;;;;5.73;2.10;;;3.00;99.90;;;;;;4141013;28;20182;-66
2023/02/01 09:19:53;;;;;;;5.63;1.93;;;2.90;99.90;;;;;;4130845;28;20182;-65
2023/02/01 09:21:53;;;;;;;4.00;2.07;;;2.90;99.90;;;;;;4131517;28;20186;-65
2023/02/01 09:23:54;;;;;;;2.20;1.90;;;3.10;99.90;;;;;;4131442;28;20174;-65
2023/02/01 09:26:00;;;;;;;7.77;1.83;;;3.10;99.90;;;;;;4130106;28;20202;-65
2023/02/01 09:28:01;;;;;;;3.97;2.27;;;3.10;99.90;;;;;;4131459;28;20190;-65
2023/02/01 09:30:04;;;;;;;3.90;1.80;;;3.00;99.90;;;;;;4130712;28;20798;-65
2023/02/01 09:32:06;;;;;;;3.27;1.70;;;3.10;99.90;;;;;;4131451;28;20569;-66
2023/02/01 09:34:08;;;;;;;4.77;2.10;;;3.20;99.90;;;;;;4131261;28;20529;-65
2023/02/01 09:36:09;;;;;;;4.03;1.87;;;3.20;99.90;;;;;;4131071;28;21010;-65
2023/02/01 09:38:10;;;;;;;4.90;2.07;;;3.30;99.90;;;;;;4131163;28;20421;-65
2023/02/01 09:40:17;;;;;;;3.90;1.67;;;3.30;99.90;;;;;;4130487;28;20554;-65
2023/02/01 09:43:16;;;;;;;3.97;1.97;;;3.30;99.90;;;;;;4131252;28;20190;-65
2023/02/01 09:45:58;;;;;;;5.23;1.70;;;3.40;99.90;;;;;;4129868;28;20513;-65
2023/02/01 09:48:17;;;;;;;3.00;2.13;;;3.30;99.90;;;;;;4131345;28;20449;-65
2023/02/01 09:50:25;;;;;;;3.93;1.93;;;3.20;99.90;;;;;;4129449;28;20956;-65
2023/02/01 09:52:44;;;;;;;3.83;2.20;;;2.90;99.90;;;;;;4131174;28;20424;-66
2023/02/01 09:54:53;;;;;;;4.57;2.20;;;2.80;99.90;;;;;;4130991;28;20514;-66
2023/02/01 09:57:16;;;;;;;5.53;2.20;;;2.70;99.90;;;;;;4131147;28;20443;-65
2023/02/01 09:59:31;;;;;;;4.53;2.20;;;2.60;99.90;;;;;;4129059;28;20421;-64
2023/02/01 10:01:32;;;;;;;5.20;2.57;;;2.70;99.90;;;;;;4130914;28;20405;-65
2023/02/01 10:03:35;;;;;;;2.40;1.70;;;2.80;99.90;;;;;;4130845;28;21191;-66
2023/02/01 10:06:20;;;;;;;4.33;1.93;;;2.90;99.90;;;;;;4129429;28;20217;-65
2023/02/01 10:08:33;;;;;;;3.70;1.97;;;2.90;99.90;;;;;;4128890;28;20994;-66
2023/02/01 10:10:44;;;;;;;2.03;1.67;;;2.90;99.90;;;;;;4145824;28;20495;-65
2023/02/01 10:13:21;;;;;;;2.77;1.70;;;2.90;99.90;;;;;;4129490;28;20934;-65
2023/02/01 10:15:44;;;;;;;2.87;1.83;;;2.80;99.90;;;;;;4129257;28;20547;-64
2023/02/01 10:18:08;;;;;;;3.03;1.87;;;2.80;99.90;;;;;;4136326;28;20475;-66
2023/02/01 10:20:19;;;;;;;3.47;2.50;;;2.80;99.90;;;;;;4146275;28;20405;-65
2023/02/01 10:22:44;;;;;;;3.40;2.20;;;2.90;99.90;;;;;;4146997;28;20436;-66
2023/02/01 10:25:04;;;;;;;2.67;1.47;;;2.90;99.90;;;;;;4145893;28;20425;-65
2023/02/01 10:27:32;;;;;;;2.30;1.80;;;2.90;99.90;;;;;;4145688;28;20905;-65
2023/02/01 10:29:40;;;;;;;3.13;1.40;;;3.00;99.90;;;;;;4145262;28;20419;-65
2023/02/01 10:31:40;;;;;;;2.63;1.97;;;3.10;99.90;;;;;;4145937;28;20926;-66
2023/02/01 10:33:52;;;;;;;1.70;1.40;;;3.10;99.90;;;;;;4145725;28;20434;-65
2023/02/01 10:36:10;;;;;;;1.90;1.60;;;3.00;99.90;;;;;;4147902;28;20704;-66
2023/02/01 10:38:27;;;;;;;2.97;1.57;;;3.00;99.90;;;;;;4145672;28;20482;-66
2023/02/01 10:40:28;;;;;;;1.67;1.47;;;3.00;99.90;;;;;;4145587;28;20747;-65
2023/02/01 10:42:31;;;;;;;2.10;1.60;;;3.00;99.90;;;;;;4145518;28;20501;-66
2023/02/01 10:44:42;;;;;;;2.47;2.07;;;3.10;99.90;;;;;;4146603;28;20793;-65
2023/02/01 10:46:43;;;;;;;6.47;1.70;;;3.10;99.90;;;;;;4146425;28;20527;-65
2023/02/01 10:48:45;;;;;;;4.57;2.37;;;3.20;99.90;;;;;;4144652;28;21001;-66
2023/02/01 10:51:24;;;;;;;2.47;2.07;;;3.30;99.90;;;;;;4145356;28;20189;-64
2023/02/01 10:54:00;;;;;;;3.93;2.50;;;3.50;99.90;;;;;;4111977;28;20439;-66
2023/02/01 10:56:08;;;;;;;3.00;1.87;;;3.50;99.90;;;;;;4140910;28;20480;-65
2023/02/01 10:58:29;;;;;;;11.37;5.63;;;3.50;99.90;;;;;;4145592;28;20413;-65
2023/02/01 11:00:53;;;;;;;3.97;1.80;;;3.60;99.90;;;;;;4146996;28;20419;-66
2023/02/01 11:02:55;;;;;;;3.73;1.90;;;3.70;99.90;;;;;;4145546;28;20460;-65
2023/02/01 11:05:04;;;;;;;4.57;2.40;;;3.90;99.90;;;;;;4147651;28;20499;-66
2023/02/01 11:07:23;;;;;;;6.07;2.23;;;3.80;99.90;;;;;;4145279;28;20950;-67
2023/02/01 11:09:25;;;;;;;2.33;1.70;;;3.80;99.90;;;;;;4144446;28;20805;-66
2023/02/01 11:11:26;;;;;;;2.47;1.60;;;3.70;99.90;;;;;;4145907;28;20421;-67
2023/02/01 11:13:35;;;;;;;1.93;1.63;;;3.40;99.90;;;;;;4146185;28;20480;-67
2023/02/01 11:15:36;;;;;;;3.30;2.57;;;3.40;99.90;;;;;;4144884;28;20392;-65
2023/02/01 11:17:43;;;;;;;5.63;2.00;;;3.50;99.90;;;;;;4146061;28;20421;-65
2023/02/01 11:20:04;;;;;;;2.83;1.70;;;3.70;99.90;;;;;;4144142;28;20194;-66
2023/02/01 11:22:05;;;;;;;3.80;2.00;;;3.90;99.90;;;;;;4146679;28;20884;-65
2023/02/01 11:24:20;;;;;;;3.27;1.93;;;4.00;99.90;;;;;;4144762;28;20520;-66
2023/02/01 11:26:23;;;;;;;2.33;1.60;;;4.20;99.90;;;;;;4144635;28;21142;-66
2023/02/01 11:28:30;;;;;;;3.17;1.90;;;4.40;99.90;;;;;;4127448;28;20433;-66